createdAt,value
2023-04-09T00:01:23.914Z,79.72
2023-04-09T00:03:17.304Z,79.66
2023-04-09T00:05:10.474Z,79.68
2023-04-09T00:07:03.425Z,79.73
2023-04-09T00:08:56.367Z,79.63
2023-04-09T00:10:50.548Z,79.64
2023-04-09T00:12:43.604Z,79.70
2023-04-09T00:14:36.645Z,79.72
2023-04-09T00:16:29.643Z,79.69
2023-04-09T00:18:22.507Z,79.56
2023-04-09T00:20:15.697Z,79.63
2023-04-09T00:22:08.661Z,79.54
2023-04-09T00:24:01.696Z,79.62
2023-04-09T00:25:54.879Z,79.48
2023-04-09T00:27:47.909Z,79.58
2023-04-09T00:29:41.255Z,79.57
2023-04-09T00:31:34.583Z,79.51
2023-04-09T00:33:27.672Z,79.46
2023-04-09T00:35:20.821Z,79.45
2023-04-09T00:37:13.765Z,79.46
2023-04-09T00:39:06.815Z,79.46
2023-04-09T00:40:59.760Z,79.47
2023-04-09T00:42:52.808Z,79.43
2023-04-09T00:44:45.724Z,79.53
2023-04-09T00:46:38.924Z,79.54
2023-04-09T00:48:32.174Z,79.56
2023-04-09T00:50:25.528Z,79.40
2023-04-09T00:52:18.689Z,79.41
2023-04-09T00:54:12.203Z,79.46
2023-04-09T00:56:06.405Z,79.47
2023-04-09T00:57:59.473Z,79.45
2023-04-09T00:59:52.521Z,79.53
2023-04-09T01:01:46.124Z,79.61
2023-04-09T01:03:39.830Z,79.51
2023-04-09T01:06:14.370Z,79.49
2023-04-09T01:08:19.420Z,79.49
2023-04-09T01:10:34.877Z,79.59
2023-04-09T01:12:54.766Z,79.63
2023-04-09T01:14:54.059Z,79.54
2023-04-09T01:17:05.030Z,79.49
2023-04-09T01:19:03.096Z,79.57
2023-04-09T01:21:09.971Z,79.47
2023-04-09T01:23:18.172Z,79.51
2023-04-09T01:25:20.132Z,79.49
2023-04-09T01:27:14.824Z,79.66
2023-04-09T01:29:26.163Z,79.58
2023-04-09T01:31:21.783Z,79.58
2023-04-09T01:33:20.083Z,79.52
2023-04-09T01:35:14.364Z,79.53
2023-04-09T01:37:08.851Z,79.54
2023-04-09T01:39:02.557Z,79.52
2023-04-09T01:40:57.618Z,79.57
2023-04-09T01:42:52.263Z,79.59
2023-04-09T01:44:46.811Z,79.60
2023-04-09T01:46:40.861Z,79.44
2023-04-09T01:48:35.350Z,79.57
2023-04-09T01:50:29.015Z,79.61
2023-04-09T01:52:22.136Z,79.70
2023-04-09T01:54:17.051Z,79.71
2023-04-09T01:56:10.837Z,79.67
2023-04-09T01:58:04.180Z,79.74
2023-04-09T01:59:57.232Z,79.72
2023-04-09T02:01:55.232Z,79.81
2023-04-09T02:04:01.330Z,79.86
2023-04-09T02:06:15.704Z,79.99
2023-04-09T02:08:16.891Z,80.12
2023-04-09T02:10:12.154Z,80.14
2023-04-09T02:12:11.044Z,80.25
2023-04-09T02:14:06.029Z,80.17
2023-04-09T02:16:00.458Z,80.26
2023-04-09T02:17:53.693Z,80.19
2023-04-09T02:19:48.469Z,80.30
2023-04-09T02:21:42.025Z,80.22
2023-04-09T02:23:35.177Z,80.30
2023-04-09T02:25:28.288Z,80.30
2023-04-09T02:27:21.492Z,80.31
2023-04-09T02:29:14.433Z,80.42
2023-04-09T02:31:07.421Z,80.42
2023-04-09T02:33:00.460Z,80.44
2023-04-09T02:34:53.481Z,80.49
2023-04-09T02:36:46.533Z,80.49
2023-04-09T02:38:43.076Z,80.54
2023-04-09T02:40:35.961Z,80.55
2023-04-09T02:42:28.860Z,80.59
2023-04-09T02:44:21.910Z,80.49
2023-04-09T02:46:15.203Z,80.53
2023-04-09T02:48:08.317Z,80.67
2023-04-09T02:50:01.675Z,80.55
2023-04-09T02:51:55.541Z,80.64
2023-04-09T02:53:48.800Z,80.83
2023-04-09T02:55:41.849Z,80.79
2023-04-09T02:57:34.901Z,80.79
2023-04-09T02:59:27.949Z,80.70
2023-04-09T03:01:21.141Z,80.77
2023-04-09T03:03:14.247Z,80.79
2023-04-09T03:05:08.027Z,80.80
2023-04-09T03:07:00.997Z,80.82
2023-04-09T03:08:54.128Z,81.01
2023-04-09T03:10:47.075Z,80.97
2023-04-09T03:12:40.027Z,80.95
2023-04-09T03:14:34.766Z,80.99
2023-04-09T03:16:28.889Z,80.98
2023-04-09T03:18:21.941Z,81.01
2023-04-09T03:20:14.888Z,81.09
2023-04-09T03:22:07.940Z,81.19
2023-04-09T03:24:02.323Z,81.26
2023-04-09T03:26:03.870Z,81.30
2023-04-09T03:27:59.998Z,81.26
2023-04-09T03:30:02.676Z,81.41
2023-04-09T03:32:02.069Z,81.41
2023-04-09T03:33:55.030Z,81.61
2023-04-09T03:35:48.263Z,81.65
2023-04-09T03:37:41.734Z,81.70
2023-04-09T03:39:39.501Z,81.86
2023-04-09T03:41:33.571Z,81.79
2023-04-09T03:43:29.392Z,81.89
2023-04-09T03:45:22.336Z,82.03
2023-04-09T03:47:16.618Z,81.88
2023-04-09T03:49:09.665Z,81.97
2023-04-09T03:51:06.502Z,82.02
2023-04-09T03:53:03.544Z,82.03
2023-04-09T03:54:58.952Z,82.06
2023-04-09T03:56:52.138Z,82.09
2023-04-09T03:58:49.844Z,82.15
2023-04-09T04:00:44.040Z,82.11
2023-04-09T04:02:52.892Z,82.23
2023-04-09T04:05:00.475Z,82.28
2023-04-09T04:06:56.894Z,82.20
2023-04-09T04:08:59.658Z,82.22
2023-04-09T04:11:05.221Z,82.38
2023-04-09T04:12:59.037Z,82.29
2023-04-09T04:15:01.137Z,82.48
2023-04-09T04:17:03.821Z,82.60
2023-04-09T04:18:57.679Z,82.58
2023-04-09T04:20:50.836Z,82.68
2023-04-09T04:22:43.908Z,82.75
2023-04-09T04:24:36.831Z,82.87
2023-04-09T04:26:30.394Z,82.98
2023-04-09T04:28:23.443Z,82.96
2023-04-09T04:30:16.709Z,83.11
2023-04-09T04:32:25.541Z,83.15
2023-04-09T04:34:18.794Z,83.32
2023-04-09T04:36:14.710Z,83.32
2023-04-09T04:38:12.054Z,83.35
2023-04-09T04:40:06.335Z,83.52
2023-04-09T04:42:01.433Z,83.53
2023-04-09T04:43:54.574Z,83.53
2023-04-09T04:45:49.307Z,83.54
2023-04-09T04:47:42.443Z,83.59
2023-04-09T04:49:35.673Z,83.68
2023-04-09T04:51:31.874Z,83.55
2023-04-09T04:53:28.736Z,83.63
2023-04-09T04:55:23.133Z,83.78
2023-04-09T04:57:16.789Z,83.92
2023-04-09T04:59:09.739Z,83.85
2023-04-09T05:01:13.387Z,83.82
2023-04-09T05:03:06.897Z,83.99
2023-04-09T05:05:12.741Z,83.93
2023-04-09T05:07:11.018Z,83.91
2023-04-09T05:09:08.060Z,83.99
2023-04-09T05:11:13.275Z,83.87
2023-04-09T05:13:06.658Z,83.86
2023-04-09T05:15:02.220Z,83.79
2023-04-09T05:16:56.466Z,83.84
2023-04-09T05:18:52.756Z,83.91
2023-04-09T05:20:45.929Z,83.91
2023-04-09T05:22:39.079Z,83.83
2023-04-09T05:24:31.974Z,83.89
2023-04-09T05:26:25.074Z,83.94
2023-04-09T05:28:21.298Z,83.93
2023-04-09T05:30:16.661Z,84.00
2023-04-09T05:32:09.649Z,84.02
2023-04-09T05:34:04.446Z,84.11
2023-04-09T05:36:17.075Z,84.25
2023-04-09T05:38:10.821Z,84.31
2023-04-09T05:40:05.739Z,84.29
2023-04-09T05:41:58.882Z,84.49
2023-04-09T05:44:05.848Z,84.44
2023-04-09T05:45:59.179Z,84.32
2023-04-09T05:47:52.617Z,84.41
2023-04-09T05:49:48.279Z,84.41
2023-04-09T05:51:43.310Z,84.35
2023-04-09T05:53:36.939Z,84.51
2023-04-09T05:55:32.556Z,84.44
2023-04-09T05:57:26.417Z,84.41
2023-04-09T05:59:23.782Z,84.40
2023-04-09T06:01:16.822Z,84.36
2023-04-09T06:03:09.981Z,84.30
2023-04-09T06:05:03.325Z,84.42
2023-04-09T06:07:00.217Z,84.31
2023-04-09T06:08:53.639Z,84.55
2023-04-09T06:10:46.778Z,84.42
2023-04-09T06:12:39.729Z,84.54
2023-04-09T06:14:33.322Z,84.70
2023-04-09T06:16:26.446Z,84.63
2023-04-09T06:18:19.557Z,84.89
2023-04-09T06:20:12.551Z,84.86
2023-04-09T06:22:05.785Z,85.02
2023-04-09T06:23:58.858Z,85.35
2023-04-09T06:25:51.806Z,85.56
2023-04-09T06:27:44.865Z,85.45
2023-04-09T06:29:37.760Z,85.57
2023-04-09T06:31:30.723Z,85.72
2023-04-09T06:33:24.289Z,85.86
2023-04-09T06:35:17.358Z,85.94
2023-04-09T06:37:10.308Z,86.20
2023-04-09T06:39:03.458Z,86.33
2023-04-09T06:40:57.539Z,86.44
2023-04-09T06:42:50.587Z,86.70
2023-04-09T06:44:48.038Z,86.65
2023-04-09T06:46:41.095Z,86.83
2023-04-09T06:48:34.343Z,86.84
2023-04-09T06:50:27.918Z,87.02
2023-04-09T06:52:20.956Z,86.98
2023-04-09T06:54:14.211Z,87.18
2023-04-09T06:56:07.676Z,87.35
2023-04-09T06:58:02.899Z,87.20
2023-04-09T06:59:55.923Z,87.37
2023-04-09T07:01:49.104Z,87.55
2023-04-09T07:03:42.512Z,87.58
2023-04-09T07:05:36.615Z,87.58
2023-04-09T07:07:30.277Z,87.55
2023-04-09T07:09:23.330Z,87.32
2023-04-09T07:11:17.326Z,87.34
2023-04-09T07:13:10.760Z,87.20
2023-04-09T07:15:06.251Z,87.05
2023-04-09T07:16:59.350Z,86.81
2023-04-09T07:18:52.381Z,86.76
2023-04-09T07:20:45.419Z,86.91
2023-04-09T07:22:38.986Z,86.71
2023-04-09T07:24:32.607Z,86.76
2023-04-09T07:26:25.697Z,86.59
2023-04-09T07:28:18.645Z,86.64
2023-04-09T07:30:11.716Z,86.49
2023-04-09T07:32:04.949Z,86.34
2023-04-09T07:33:58.206Z,86.35
2023-04-09T07:35:51.977Z,86.23
2023-04-09T07:37:46.577Z,86.12
2023-04-09T07:39:39.713Z,86.12
2023-04-09T07:41:32.762Z,86.11
2023-04-09T07:43:25.798Z,86.08
2023-04-09T07:45:18.978Z,86.00
2023-04-09T07:47:13.099Z,85.99
2023-04-09T07:49:06.109Z,85.84
2023-04-09T07:50:59.144Z,85.82
2023-04-09T07:52:52.095Z,85.51
2023-04-09T07:54:45.354Z,85.51
2023-04-09T07:56:38.610Z,85.38
2023-04-09T07:58:31.767Z,85.41
2023-04-09T08:00:25.015Z,85.34
2023-04-09T08:02:18.418Z,85.25
2023-04-09T08:04:13.397Z,85.01
2023-04-09T08:06:07.550Z,84.81
2023-04-09T08:08:00.596Z,84.98
2023-04-09T08:09:53.644Z,84.80
2023-04-09T08:11:48.122Z,84.74
2023-04-09T08:13:41.178Z,84.58
2023-04-09T08:15:34.128Z,84.57
2023-04-09T08:17:57.206Z,84.56
2023-04-09T08:19:58.535Z,84.67
2023-04-09T08:21:52.716Z,84.88
2023-04-09T08:23:45.753Z,84.59
2023-04-09T08:25:38.806Z,83.92
2023-04-09T08:27:32.777Z,83.55
2023-04-09T08:29:27.055Z,83.14
2023-04-09T08:31:20.008Z,83.03
2023-04-09T08:33:14.077Z,82.97
2023-04-09T08:35:07.748Z,83.18
2023-04-09T08:37:00.795Z,82.88
2023-04-09T08:38:56.162Z,82.72
2023-04-09T08:40:49.561Z,82.63
2023-04-09T08:42:46.586Z,82.50
2023-04-09T08:44:39.650Z,82.65
2023-04-09T08:46:32.701Z,82.43
2023-04-09T08:48:25.834Z,82.32
2023-04-09T08:50:20.255Z,82.22
2023-04-09T08:52:13.288Z,81.97
2023-04-09T08:54:07.567Z,82.32
2023-04-09T08:56:00.544Z,82.10
2023-04-09T08:57:53.574Z,81.96
2023-04-09T08:59:46.720Z,82.08
2023-04-09T09:01:39.766Z,82.07
2023-04-09T09:03:51.821Z,82.22
2023-04-09T09:05:46.875Z,82.16
2023-04-09T09:07:54.772Z,82.17
2023-04-09T09:09:52.711Z,82.23
2023-04-09T09:11:48.505Z,82.19
2023-04-09T09:13:41.485Z,82.23
2023-04-09T09:15:34.542Z,82.13
2023-04-09T09:17:27.702Z,82.28
2023-04-09T09:19:26.803Z,82.20
2023-04-09T09:21:20.035Z,81.88
2023-04-09T09:23:13.290Z,81.98
2023-04-09T09:25:13.139Z,82.10
2023-04-09T09:27:06.152Z,82.21
2023-04-09T09:29:04.188Z,82.20
2023-04-09T09:31:08.582Z,82.15
2023-04-09T09:33:07.234Z,81.98
2023-04-09T09:35:07.351Z,81.60
2023-04-09T09:37:00.487Z,81.53
2023-04-09T09:38:56.361Z,81.24
2023-04-09T09:40:49.968Z,81.41
2023-04-09T09:42:56.137Z,81.55
2023-04-09T09:44:50.306Z,81.42
2023-04-09T09:46:43.360Z,81.40
2023-04-09T09:48:36.410Z,81.32
2023-04-09T09:50:31.197Z,81.26
2023-04-09T09:52:27.074Z,81.07
2023-04-09T09:54:25.598Z,80.89
2023-04-09T09:56:24.759Z,80.79
2023-04-09T09:58:23.751Z,80.81
2023-04-09T10:00:18.632Z,80.78
2023-04-09T10:02:19.612Z,80.66
2023-04-09T10:04:15.207Z,80.56
2023-04-09T10:06:09.292Z,80.64
2023-04-09T10:08:03.161Z,80.64
2023-04-09T10:09:57.443Z,80.20
2023-04-09T10:11:50.595Z,79.90
2023-04-09T10:13:52.765Z,80.08
2023-04-09T10:15:47.660Z,80.11
2023-04-09T10:17:40.617Z,80.18
2023-04-09T10:19:41.638Z,80.05
2023-04-09T10:21:47.727Z,80.12
2023-04-09T10:23:42.942Z,80.26
2023-04-09T10:25:35.847Z,80.14
2023-04-09T10:27:28.998Z,80.22
2023-04-09T10:29:29.218Z,80.55
2023-04-09T10:31:22.199Z,81.54
2023-04-09T10:33:17.576Z,81.85
2023-04-09T10:35:10.719Z,80.38
2023-04-09T10:37:04.191Z,79.44
2023-04-09T10:38:57.330Z,79.00
2023-04-09T10:40:53.558Z,78.60
2023-04-09T10:42:47.645Z,78.77
2023-04-09T10:44:43.959Z,78.97
2023-04-09T10:46:44.270Z,78.71
2023-04-09T10:48:37.233Z,78.70
2023-04-09T10:50:33.043Z,78.55
2023-04-09T10:52:30.498Z,78.51
2023-04-09T10:54:35.272Z,78.55
2023-04-09T10:56:28.171Z,78.22
2023-04-09T10:58:21.428Z,77.70
2023-04-09T11:00:14.410Z,77.08
2023-04-09T11:02:28.603Z,76.62
2023-04-09T11:04:22.255Z,76.39
2023-04-09T11:06:18.231Z,76.48
2023-04-09T11:08:12.744Z,76.12
2023-04-09T11:10:06.326Z,75.95
2023-04-09T11:11:59.219Z,76.17
2023-04-09T11:13:52.052Z,75.44
2023-04-09T11:15:46.283Z,75.41
2023-04-09T11:17:39.841Z,74.29
2023-04-09T11:19:36.219Z,73.88
2023-04-09T11:21:29.183Z,73.50
2023-04-09T11:23:26.634Z,73.40
2023-04-09T11:25:54.931Z,72.70
2023-04-09T11:27:48.554Z,72.29
2023-04-09T11:29:44.370Z,71.92
2023-04-09T11:31:46.321Z,71.94
2023-04-09T11:33:39.277Z,70.93
2023-04-09T11:35:34.422Z,70.97
2023-04-09T11:37:27.426Z,70.40
2023-04-09T11:39:20.738Z,69.83
2023-04-09T11:41:14.243Z,69.69
2023-04-09T11:43:08.419Z,69.74
2023-04-09T11:45:01.792Z,70.08
2023-04-09T11:46:54.956Z,69.79
2023-04-09T11:48:49.015Z,69.88
2023-04-09T11:50:42.163Z,70.27
2023-04-09T11:52:36.656Z,69.66
2023-04-09T11:54:39.258Z,69.01
2023-04-09T11:56:33.299Z,68.62
2023-04-09T11:58:26.589Z,68.77
2023-04-09T12:00:20.419Z,68.68
2023-04-09T12:02:18.443Z,69.11
2023-04-09T12:04:20.775Z,69.39
2023-04-09T12:06:13.807Z,69.79
2023-04-09T12:08:08.730Z,69.66
2023-04-09T12:10:10.232Z,69.25
2023-04-09T12:12:03.306Z,69.08
2023-04-09T12:14:01.800Z,68.27
2023-04-09T12:15:57.432Z,68.44
2023-04-09T12:17:58.405Z,68.57
2023-04-09T12:19:52.249Z,68.82
2023-04-09T12:21:54.850Z,68.89
2023-04-09T12:23:47.724Z,68.40
2023-04-09T12:25:43.117Z,68.40
2023-04-09T12:27:36.375Z,68.78
2023-04-09T12:29:32.664Z,68.24
2023-04-09T12:31:25.751Z,68.18
2023-04-09T12:33:19.042Z,68.21
2023-04-09T12:35:12.572Z,68.43
2023-04-09T12:37:05.723Z,68.93
2023-04-09T12:38:58.714Z,69.00
2023-04-09T12:40:52.495Z,69.08
2023-04-09T12:42:47.810Z,68.47
2023-04-09T12:44:40.689Z,68.78
2023-04-09T12:46:33.613Z,68.93
2023-04-09T12:48:26.991Z,68.84
2023-04-09T12:50:19.924Z,68.74
2023-04-09T12:52:13.203Z,68.50
2023-04-09T12:54:06.060Z,67.68
2023-04-09T12:55:59.401Z,67.84
2023-04-09T12:57:52.472Z,67.71
2023-04-09T12:59:45.706Z,67.74
2023-04-09T13:01:40.182Z,67.86
2023-04-09T13:03:35.460Z,66.98
2023-04-09T13:05:29.060Z,67.69
2023-04-09T13:07:22.866Z,67.95
2023-04-09T13:09:16.189Z,67.11
2023-04-09T13:11:09.137Z,67.67
2023-04-09T13:13:01.924Z,68.20
2023-04-09T13:14:55.701Z,67.97
2023-04-09T13:16:50.272Z,68.13
2023-04-09T13:18:43.181Z,67.85
2023-04-09T13:20:36.134Z,67.95
2023-04-09T13:22:28.940Z,68.02
2023-04-09T13:24:21.924Z,68.58
2023-04-09T13:26:14.782Z,68.26
2023-04-09T13:28:07.712Z,68.20
2023-04-09T13:30:00.676Z,68.55
2023-04-09T13:31:53.494Z,69.09
2023-04-09T13:33:46.363Z,69.13
2023-04-09T13:35:39.627Z,69.54
2023-04-09T13:37:32.508Z,69.50
2023-04-09T13:39:25.412Z,69.38
2023-04-09T13:41:18.248Z,69.57
2023-04-09T13:43:11.512Z,69.82
2023-04-09T13:45:05.123Z,70.16
2023-04-09T13:46:58.321Z,70.54
2023-04-09T13:48:51.315Z,70.86
2023-04-09T13:50:44.526Z,70.75
2023-04-09T13:52:37.386Z,70.81
2023-04-09T13:54:30.419Z,70.82
2023-04-09T13:56:23.577Z,70.82
2023-04-09T13:58:16.522Z,70.93
2023-04-09T14:00:10.041Z,71.15
2023-04-09T14:02:03.066Z,71.12
2023-04-09T14:03:57.410Z,70.88
2023-04-09T14:05:50.854Z,70.56
2023-04-09T14:07:43.719Z,70.53
2023-04-09T14:09:36.563Z,70.82
2023-04-09T14:11:29.512Z,70.59
2023-04-09T14:13:22.564Z,70.63
2023-04-09T14:15:15.633Z,70.83
2023-04-09T14:17:08.460Z,70.96
2023-04-09T14:19:01.721Z,71.05
2023-04-09T14:20:54.662Z,71.13
2023-04-09T14:22:49.517Z,70.80
2023-04-09T14:24:42.823Z,70.35
2023-04-09T14:26:35.965Z,69.91
2023-04-09T14:28:28.812Z,70.03
2023-04-09T14:30:22.993Z,70.01
2023-04-09T14:32:15.807Z,70.08
2023-04-09T14:34:08.641Z,70.10
2023-04-09T14:36:01.605Z,70.40
2023-04-09T14:37:55.297Z,70.40
2023-04-09T14:39:48.243Z,70.53
2023-04-09T14:41:41.802Z,70.66
2023-04-09T14:43:34.647Z,70.64
2023-04-09T14:45:28.807Z,70.49
2023-04-09T14:47:23.420Z,70.50
2023-04-09T14:49:16.371Z,70.40
2023-04-09T14:51:11.071Z,70.66
2023-04-09T14:53:04.622Z,70.65
2023-04-09T14:54:57.566Z,70.88
2023-04-09T14:56:50.520Z,71.07
2023-04-09T14:58:43.569Z,70.98
2023-04-09T15:00:36.545Z,71.23
2023-04-09T15:02:29.548Z,71.07
2023-04-09T15:04:23.675Z,71.22
2023-04-09T15:06:16.611Z,71.14
2023-04-09T15:08:09.413Z,71.08
2023-04-09T15:10:02.788Z,70.94
2023-04-09T15:11:56.147Z,70.97
2023-04-09T15:13:48.951Z,71.19
2023-04-09T15:15:44.203Z,71.20
2023-04-09T15:17:37.320Z,71.21
2023-04-09T15:19:32.447Z,71.33
2023-04-09T15:21:27.183Z,71.65
2023-04-09T15:23:20.487Z,71.56
2023-04-09T15:25:14.381Z,71.65
2023-04-09T15:27:07.835Z,71.59
2023-04-09T15:29:04.255Z,71.66
2023-04-09T15:30:57.094Z,71.96
2023-04-09T15:32:50.088Z,72.07
2023-04-09T15:34:46.106Z,72.22
2023-04-09T15:36:39.010Z,71.85
2023-04-09T15:38:31.772Z,71.68
2023-04-09T15:40:24.748Z,71.72
2023-04-09T15:42:22.612Z,71.49
2023-04-09T15:44:15.723Z,71.60
2023-04-09T15:46:10.057Z,71.74
2023-04-09T15:48:02.970Z,71.70
2023-04-09T15:49:56.405Z,71.18
2023-04-09T15:51:49.262Z,70.95
2023-04-09T15:53:42.402Z,71.10
2023-04-09T15:55:35.252Z,70.96
2023-04-09T15:57:28.921Z,71.07
2023-04-09T15:59:21.775Z,71.06
2023-04-09T16:01:15.298Z,71.07
2023-04-09T16:03:08.380Z,71.24
2023-04-09T16:05:01.190Z,71.17
2023-04-09T16:06:55.499Z,71.23
2023-04-09T16:08:48.347Z,71.47
2023-04-09T16:10:41.465Z,71.59
2023-04-09T16:12:34.245Z,71.73
2023-04-09T16:14:28.122Z,71.92
2023-04-09T16:16:20.968Z,71.95
2023-04-09T16:18:14.036Z,71.73
2023-04-09T16:20:08.522Z,71.67
2023-04-09T16:22:01.766Z,71.62
2023-04-09T16:23:54.704Z,71.66
2023-04-09T16:25:47.965Z,71.56
2023-04-09T16:27:40.900Z,71.88
2023-04-09T16:29:34.358Z,71.78
2023-04-09T16:31:27.539Z,71.83
2023-04-09T16:33:20.563Z,72.05
2023-04-09T16:35:13.411Z,71.91
2023-04-09T16:37:07.721Z,72.05
2023-04-09T16:39:00.845Z,72.11
2023-04-09T16:40:54.165Z,72.24
2023-04-09T16:42:47.251Z,72.28
2023-04-09T16:44:40.504Z,72.18
2023-04-09T16:46:33.453Z,72.15
2023-04-09T16:48:26.293Z,72.40
2023-04-09T16:50:20.832Z,72.37
2023-04-09T16:52:14.135Z,72.62
2023-04-09T16:54:42.779Z,72.69
2023-04-09T16:57:10.590Z,72.85
2023-04-09T16:59:03.527Z,72.94
2023-04-09T17:00:58.082Z,72.95
2023-04-09T17:02:52.238Z,73.11
2023-04-09T17:04:45.764Z,73.22
2023-04-09T17:06:38.712Z,73.30
2023-04-09T17:08:32.372Z,73.43
2023-04-09T17:10:25.657Z,73.47
2023-04-09T17:12:18.880Z,73.71
2023-04-09T17:14:12.606Z,73.72
2023-04-09T17:16:07.464Z,73.81
2023-04-09T17:18:01.876Z,74.02
2023-04-09T17:19:58.990Z,74.03
2023-04-09T17:21:52.230Z,74.12
2023-04-09T17:23:45.695Z,74.02
2023-04-09T17:25:38.771Z,74.14
2023-04-09T17:27:32.417Z,74.25
2023-04-09T17:29:25.312Z,74.23
2023-04-09T17:31:19.120Z,74.34
2023-04-09T17:33:12.575Z,74.27
2023-04-09T17:35:07.651Z,74.55
2023-04-09T17:37:00.625Z,74.40
2023-04-09T17:38:54.768Z,74.54
2023-04-09T17:40:48.158Z,74.81
2023-04-09T17:42:43.053Z,74.93
2023-04-09T17:44:36.406Z,74.81
2023-04-09T17:46:30.400Z,74.96
2023-04-09T17:48:23.538Z,75.02
2023-04-09T17:50:17.243Z,75.28
2023-04-09T17:52:10.773Z,75.19
2023-04-09T17:54:04.743Z,75.42
2023-04-09T17:55:58.607Z,75.54
2023-04-09T17:57:51.869Z,75.68
2023-04-09T17:59:44.913Z,75.72
2023-04-09T18:01:38.579Z,75.95
2023-04-09T18:03:31.777Z,76.08
2023-04-09T18:05:26.196Z,76.29
2023-04-09T18:07:19.280Z,76.36
2023-04-09T18:09:13.548Z,76.48
2023-04-09T18:11:12.618Z,76.72
2023-04-09T18:13:06.627Z,76.72
2023-04-09T18:15:00.473Z,76.87
2023-04-09T18:16:53.426Z,76.82
2023-04-09T18:18:46.886Z,77.06
2023-04-09T18:20:40.064Z,77.04
2023-04-09T18:22:34.009Z,77.16
2023-04-09T18:24:28.832Z,77.17
2023-04-09T18:26:24.676Z,77.40
2023-04-09T18:28:19.313Z,77.34
2023-04-09T18:30:12.465Z,77.49
2023-04-09T18:32:05.414Z,77.40
2023-04-09T18:33:58.362Z,77.65
2023-04-09T18:35:51.814Z,77.59
2023-04-09T18:37:46.006Z,77.62
2023-04-09T18:39:39.167Z,77.68
2023-04-09T18:41:33.118Z,77.61
2023-04-09T18:43:26.277Z,77.72
2023-04-09T18:45:20.155Z,77.82
2023-04-09T18:47:13.203Z,77.80
2023-04-09T18:49:06.256Z,77.80
2023-04-09T18:51:01.647Z,77.93
2023-04-09T18:52:54.596Z,77.89
2023-04-09T18:54:48.409Z,78.11
2023-04-09T18:56:41.726Z,78.08
2023-04-09T18:58:36.460Z,77.89
2023-04-09T19:00:31.062Z,78.07
2023-04-09T19:02:24.562Z,78.10
2023-04-09T19:04:18.286Z,78.27
2023-04-09T19:06:18.317Z,78.26
2023-04-09T19:08:13.238Z,78.20
2023-04-09T19:10:07.281Z,78.41
2023-04-09T19:12:01.703Z,78.28
2023-04-09T19:13:54.673Z,78.33
2023-04-09T19:15:48.011Z,78.29
2023-04-09T19:17:41.329Z,78.39
2023-04-09T19:19:35.084Z,78.33
2023-04-09T19:21:29.118Z,78.48
2023-04-09T19:23:23.155Z,78.41
2023-04-09T19:25:17.474Z,78.71
2023-04-09T19:27:11.890Z,78.66
2023-04-09T19:29:05.496Z,78.63
2023-04-09T19:30:59.659Z,78.78
2023-04-09T19:32:54.548Z,78.91
2023-04-09T19:34:47.621Z,78.94
2023-04-09T19:36:40.976Z,78.84
2023-04-09T19:38:34.340Z,78.95
2023-04-09T19:40:27.687Z,79.01
2023-04-09T19:42:21.251Z,79.08
2023-04-09T19:44:14.098Z,79.20
2023-04-09T19:46:09.521Z,79.19
2023-04-09T19:48:02.688Z,79.31
2023-04-09T19:49:55.623Z,79.36
2023-04-09T19:51:49.675Z,79.59
2023-04-09T19:53:47.443Z,79.50
2023-04-09T19:55:41.923Z,79.62
2023-04-09T19:57:35.491Z,79.63
2023-04-09T19:59:29.154Z,79.70
2023-04-09T20:01:22.159Z,79.77
2023-04-09T20:03:15.842Z,79.81
2023-04-09T20:05:10.363Z,79.68
2023-04-09T20:07:04.437Z,79.78
2023-04-09T20:08:57.473Z,79.75
2023-04-09T20:10:50.833Z,80.06
2023-04-09T20:12:47.784Z,80.04
2023-04-09T20:14:40.663Z,79.95
2023-04-09T20:16:33.594Z,80.00
2023-04-09T20:18:26.729Z,79.97
2023-04-09T20:20:20.397Z,80.11
2023-04-09T20:22:13.293Z,80.26
2023-04-09T20:24:06.939Z,80.20
2023-04-09T20:26:00.050Z,80.29
2023-04-09T20:27:53.314Z,80.24
2023-04-09T20:29:46.254Z,80.14
2023-04-09T20:31:39.057Z,80.19
2023-04-09T20:33:32.368Z,80.32
2023-04-09T20:35:25.299Z,80.42
2023-04-09T20:37:18.148Z,80.41
2023-04-09T20:39:11.766Z,80.56
2023-04-09T20:41:04.863Z,80.50
2023-04-09T20:42:57.708Z,80.55
2023-04-09T20:44:50.554Z,80.60
2023-04-09T20:46:44.148Z,80.52
2023-04-09T20:48:37.578Z,80.61
2023-04-09T20:50:31.248Z,80.75
2023-04-09T20:52:24.909Z,80.63
2023-04-09T20:54:18.288Z,80.71
2023-04-09T20:56:12.552Z,80.59
2023-04-09T20:58:05.899Z,80.72
2023-04-09T21:00:01.715Z,80.84
2023-04-09T21:01:57.645Z,80.97
2023-04-09T21:03:51.056Z,80.91
2023-04-09T21:05:44.045Z,80.98
2023-04-09T21:07:36.988Z,81.06
2023-04-09T21:09:31.539Z,81.07
2023-04-09T21:11:24.522Z,81.11
2023-04-09T21:13:17.470Z,81.15
2023-04-09T21:15:11.218Z,81.29
2023-04-09T21:17:04.136Z,81.46
2023-04-09T21:18:57.498Z,81.40
2023-04-09T21:20:51.113Z,81.51
2023-04-09T21:22:44.059Z,81.72
2023-04-09T21:24:36.905Z,81.72
2023-04-09T21:26:38.682Z,81.78
2023-04-09T21:28:42.978Z,81.96
2023-04-09T21:30:38.106Z,82.09
2023-04-09T21:32:31.493Z,82.11
2023-04-09T21:34:24.858Z,82.18
2023-04-09T21:36:19.470Z,82.10
2023-04-09T21:38:13.159Z,82.07
2023-04-09T21:40:07.441Z,82.43
2023-04-09T21:42:01.257Z,82.47
2023-04-09T21:43:55.022Z,82.42
2023-04-09T21:45:49.114Z,82.38
2023-04-09T21:47:43.142Z,82.48
2023-04-09T21:49:39.413Z,82.57
2023-04-09T21:51:32.697Z,82.58
2023-04-09T21:53:25.794Z,82.66
2023-04-09T21:55:18.583Z,82.83
2023-04-09T21:57:11.759Z,82.98
2023-04-09T21:59:05.661Z,83.12
2023-04-09T22:00:58.527Z,83.12
2023-04-09T22:02:51.882Z,83.27
2023-04-09T22:04:45.223Z,83.39
2023-04-09T22:06:38.179Z,83.41
2023-04-09T22:08:30.926Z,83.55
2023-04-09T22:10:24.436Z,83.75
2023-04-09T22:12:17.482Z,83.73
2023-04-09T22:14:11.716Z,83.67
2023-04-09T22:16:05.613Z,83.69
2023-04-09T22:17:58.772Z,83.62
2023-04-09T22:19:51.744Z,83.72
2023-04-09T22:21:44.687Z,83.61
2023-04-09T22:23:37.497Z,83.59
2023-04-09T22:25:35.021Z,83.61
2023-04-09T22:27:28.133Z,83.28
2023-04-09T22:29:20.983Z,83.39
2023-04-09T22:31:13.895Z,83.21
2023-04-09T22:33:06.913Z,83.04
2023-04-09T22:34:59.699Z,82.89
2023-04-09T22:36:52.577Z,82.86
2023-04-09T22:38:45.922Z,82.70
2023-04-09T22:40:38.768Z,82.65
2023-04-09T22:42:32.431Z,82.72
2023-04-09T22:44:25.805Z,82.61
2023-04-09T22:46:18.785Z,82.65
2023-04-09T22:48:11.684Z,82.51
2023-04-09T22:50:08.360Z,82.39
2023-04-09T22:52:01.166Z,82.32
2023-04-09T22:53:54.012Z,82.56
2023-04-09T22:55:48.890Z,82.58
2023-04-09T22:57:43.157Z,82.57
2023-04-09T23:01:32.175Z,82.47
2023-04-09T23:03:25.752Z,82.46
2023-04-09T23:05:18.865Z,82.35
2023-04-09T23:07:11.714Z,82.35
2023-04-09T23:09:04.659Z,82.44
2023-04-09T23:10:57.539Z,82.60
2023-04-09T23:12:50.760Z,82.79
2023-04-09T23:14:43.605Z,82.91
2023-04-09T23:16:36.569Z,83.20
2023-04-09T23:18:29.498Z,83.37
2023-04-09T23:20:22.771Z,83.69
2023-04-09T23:22:16.010Z,84.22
2023-04-09T23:24:08.857Z,84.41
2023-04-09T23:26:02.229Z,84.24
2023-04-09T23:27:55.466Z,84.15
2023-04-09T23:29:48.519Z,84.11
2023-04-09T23:31:41.583Z,84.03
2023-04-09T23:33:34.624Z,83.98
2023-04-09T23:35:27.603Z,83.87
2023-04-09T23:37:20.526Z,83.88
2023-04-09T23:39:13.379Z,83.99
2023-04-09T23:41:06.621Z,83.91
2023-04-09T23:42:59.406Z,83.90
2023-04-09T23:44:52.308Z,83.92
2023-04-09T23:46:45.180Z,84.06
2023-04-09T23:48:38.015Z,84.04
2023-04-09T23:50:31.050Z,84.11
2023-04-09T23:52:24.060Z,84.20
2023-04-09T23:54:16.956Z,84.25
2023-04-09T23:56:09.896Z,84.33
2023-04-09T23:58:02.849Z,84.41
2023-04-09T23:59:56.307Z,84.51
